Time;durP1;ratioP1;P1;durP2;ratioP2;P2;SDS_P1;SDS_P2;PMS_P1;PMS_P2;Temp;Humidity;BMP_temperature;BMP_pressure;BME280_temperature;BME280_humidity;BME280_pressure;Samples;Min_cycle;Max_cycle;Signal;HPM_P1;HPM_P2
2022/11/08 00:02:23;;;;;;;9.03;2.57;;;13.60;99.90;;;;;;5025105;28;20372;-73
2022/11/08 00:04:50;;;;;;;9.13;3.13;;;13.60;99.90;;;;;;5022894;28;20201;-74
2022/11/08 00:15:37;;;;;;;12.53;3.17;;;13.40;99.90;;;;;;5020850;28;20640;-73
2022/11/08 00:18:05;;;;;;;8.90;2.70;;;13.40;99.90;;;;;;5016631;28;20199;-74
2022/11/08 00:20:33;;;;;;;7.03;2.60;;;13.30;99.90;;;;;;5023031;28;20205;-72
2022/11/08 00:23:00;;;;;;;8.10;2.70;;;13.40;99.90;;;;;;5021921;28;20220;-74
2022/11/08 00:25:27;;;;;;;8.90;2.80;;;13.40;99.90;;;;;;5028680;28;20214;-74
2022/11/08 00:27:53;;;;;;;15.67;3.00;;;13.30;99.90;;;;;;5024775;28;20202;-73
2022/11/08 00:30:20;;;;;;;7.83;3.07;;;13.30;99.90;;;;;;5033179;28;20712;-74
2022/11/08 00:32:47;;;;;;;7.97;3.10;;;13.20;99.90;;;;;;5024292;28;20245;-73
2022/11/08 00:35:15;;;;;;;10.13;3.30;;;13.30;99.90;;;;;;5023432;28;20210;-73
2022/11/08 00:37:50;;;;;;;10.07;3.10;;;13.20;99.90;;;;;;5025263;28;20264;-74
2022/11/08 00:40:17;;;;;;;7.07;2.90;;;13.20;99.90;;;;;;5021459;28;20676;-72
2022/11/08 00:42:46;;;;;;;9.67;3.37;;;13.20;99.90;;;;;;5024497;28;20578;-74
2022/11/08 00:45:13;;;;;;;10.97;3.93;;;13.10;99.90;;;;;;5024430;28;20249;-74
2022/11/08 00:47:40;;;;;;;12.33;3.00;;;13.10;99.90;;;;;;5026034;28;20240;-73
2022/11/08 00:50:07;;;;;;;11.07;2.90;;;13.10;99.90;;;;;;5022917;28;20325;-74
2022/11/08 00:52:34;;;;;;;7.03;2.60;;;13.00;99.90;;;;;;5022756;28;20217;-73
2022/11/08 00:55:00;;;;;;;9.40;2.90;;;13.00;99.90;;;;;;5022515;28;20228;-73
2022/11/08 00:57:27;;;;;;;13.67;3.10;;;13.00;99.90;;;;;;5023770;28;20637;-73
2022/11/08 01:00:14;;;;;;;7.73;3.13;;;12.90;99.90;;;;;;5006157;28;20214;-74
2022/11/08 01:02:41;;;;;;;9.30;2.93;;;12.90;99.90;;;;;;5025591;28;20657;-74
2022/11/08 01:05:08;;;;;;;10.67;3.30;;;12.90;99.90;;;;;;5023299;28;20289;-73
2022/11/08 01:07:34;;;;;;;10.63;3.47;;;12.90;99.90;;;;;;5005976;28;20316;-74
2022/11/08 01:10:01;;;;;;;14.40;3.10;;;12.90;99.90;;;;;;5024473;28;20284;-73
2022/11/08 01:12:28;;;;;;;12.33;3.27;;;12.90;99.90;;;;;;5022987;28;20285;-73
2022/11/08 01:14:55;;;;;;;13.57;3.97;;;12.80;99.90;;;;;;5023779;28;20225;-73
2022/11/08 01:17:22;;;;;;;12.03;3.20;;;12.80;99.90;;;;;;5025593;28;20213;-73
2022/11/08 01:19:48;;;;;;;9.87;3.30;;;12.80;99.90;;;;;;5021377;28;20214;-73
2022/11/08 01:22:15;;;;;;;12.17;3.77;;;12.70;99.90;;;;;;5024761;28;20238;-73
2022/11/08 01:24:42;;;;;;;11.23;3.00;;;12.70;99.90;;;;;;5029160;28;20202;-74
2022/11/08 01:27:08;;;;;;;11.20;3.43;;;12.70;99.90;;;;;;5024516;28;20206;-74
2022/11/08 01:29:36;;;;;;;9.07;2.67;;;12.70;99.90;;;;;;5023355;28;20236;-74
2022/11/08 01:32:03;;;;;;;10.37;3.73;;;12.60;99.90;;;;;;5027232;28;20225;-74
2022/11/08 01:34:30;;;;;;;10.97;3.00;;;12.60;99.90;;;;;;5023086;28;20212;-73
2022/11/08 01:36:56;;;;;;;8.30;3.20;;;12.60;99.90;;;;;;5005598;28;20662;-72
2022/11/08 01:39:23;;;;;;;11.50;3.30;;;12.60;99.90;;;;;;5013068;28;20212;-73
2022/11/08 01:41:50;;;;;;;10.13;3.50;;;12.60;99.90;;;;;;5020844;28;20217;-73
2022/11/08 01:44:17;;;;;;;10.87;2.97;;;12.50;99.90;;;;;;5024115;28;20218;-74
2022/11/08 01:46:45;;;;;;;5.97;3.30;;;12.50;99.90;;;;;;5011327;28;20285;-74
2022/11/08 01:49:27;;;;;;;7.57;3.17;;;12.40;99.90;;;;;;5011593;28;20213;-75
2022/11/08 01:52:01;;;;;;;10.97;3.23;;;12.40;99.90;;;;;;5017285;28;20214;-74
2022/11/08 01:54:40;;;;;;;8.83;3.17;;;12.40;99.90;;;;;;5022963;28;20214;-74
2022/11/08 01:57:11;;;;;;;7.60;3.63;;;12.30;99.90;;;;;;5020333;28;20701;-75
2022/11/08 01:59:41;;;;;;;9.57;3.67;;;12.30;99.90;;;;;;5020978;28;20221;-73
2022/11/08 02:02:09;;;;;;;11.57;3.67;;;12.30;99.90;;;;;;5023697;28;20212;-73
2022/11/08 02:04:41;;;;;;;9.43;3.50;;;12.20;99.90;;;;;;5021245;28;20215;-75
2022/11/08 02:07:11;;;;;;;11.70;3.97;;;12.20;99.90;;;;;;5005435;28;20224;-73
2022/11/08 02:09:42;;;;;;;9.77;3.57;;;12.10;99.90;;;;;;5010016;28;20296;-74
2022/11/08 02:12:11;;;;;;;8.03;3.33;;;12.10;99.90;;;;;;5023910;28;20292;-74
2022/11/08 02:14:37;;;;;;;11.50;3.40;;;12.10;99.90;;;;;;5024457;28;20249;-75
2022/11/08 02:17:06;;;;;;;10.83;3.90;;;12.10;99.90;;;;;;5006401;28;20578;-74
2022/11/08 02:19:44;;;;;;;10.40;3.70;;;12.10;99.90;;;;;;5022647;28;20206;-74
2022/11/08 02:22:32;;;;;;;13.33;4.27;;;12.10;99.90;;;;;;5018748;28;20302;-73
2022/11/08 02:24:59;;;;;;;11.90;3.53;;;12.00;99.90;;;;;;5021674;28;20297;-73
2022/11/08 02:27:26;;;;;;;9.53;3.80;;;12.00;99.90;;;;;;5022047;28;20210;-74
2022/11/08 02:29:54;;;;;;;15.50;4.53;;;12.00;99.90;;;;;;5022425;28;20282;-73
2022/11/08 02:32:21;;;;;;;11.63;3.87;;;11.90;99.90;;;;;;5023329;28;20305;-73
2022/11/08 02:34:55;;;;;;;13.40;4.00;;;11.90;99.90;;;;;;5021120;28;20202;-74
2022/11/08 02:37:22;;;;;;;13.90;4.47;;;11.90;99.90;;;;;;5020166;28;20578;-74
2022/11/08 02:39:49;;;;;;;10.83;4.17;;;11.90;99.90;;;;;;5002856;28;20216;-73
2022/11/08 02:42:18;;;;;;;10.50;3.93;;;11.90;99.90;;;;;;5022680;28;20711;-74
2022/11/08 02:44:45;;;;;;;10.70;4.17;;;11.90;99.90;;;;;;5021464;28;20603;-73
2022/11/08 02:47:13;;;;;;;12.30;4.20;;;11.90;99.90;;;;;;5022295;28;20249;-74
2022/11/08 02:49:40;;;;;;;9.80;3.90;;;11.90;99.90;;;;;;5000931;28;20570;-73
2022/11/08 02:52:07;;;;;;;8.83;3.60;;;11.80;99.90;;;;;;5023349;28;20316;-73
2022/11/08 02:54:33;;;;;;;17.90;4.50;;;11.80;99.90;;;;;;5023161;28;20234;-73
2022/11/08 02:57:00;;;;;;;8.63;4.00;;;11.80;99.90;;;;;;5021881;28;20247;-73
2022/11/08 02:59:27;;;;;;;16.00;4.53;;;11.80;99.90;;;;;;5020135;28;20411;-73
2022/11/08 03:01:53;;;;;;;8.70;3.97;;;11.80;99.90;;;;;;5004428;28;20332;-73
2022/11/08 03:04:20;;;;;;;9.00;3.87;;;11.80;99.90;;;;;;5021002;28;20210;-74
2022/11/08 03:06:47;;;;;;;10.73;4.30;;;11.80;99.90;;;;;;5023432;28;20317;-73
2022/11/08 03:09:14;;;;;;;9.27;3.83;;;11.80;99.90;;;;;;5023458;28;20208;-73
2022/11/08 03:11:41;;;;;;;10.50;4.00;;;11.80;99.90;;;;;;5021500;28;20226;-74
2022/11/08 03:14:07;;;;;;;12.33;4.17;;;11.80;99.90;;;;;;5022615;28;20657;-74
2022/11/08 03:16:34;;;;;;;11.53;3.80;;;11.80;99.90;;;;;;5020844;28;20221;-73
2022/11/08 03:19:01;;;;;;;12.50;4.37;;;11.70;99.90;;;;;;5022211;28;20654;-73
2022/11/08 03:21:27;;;;;;;9.97;4.43;;;11.70;99.90;;;;;;5016950;28;20546;-74
2022/11/08 03:23:55;;;;;;;10.23;3.77;;;11.70;99.90;;;;;;5026120;28;20233;-73
2022/11/08 03:26:21;;;;;;;9.47;5.10;;;11.70;99.90;;;;;;5025134;28;20212;-73
2022/11/08 03:28:48;;;;;;;10.97;3.87;;;11.70;99.90;;;;;;5020468;28;20308;-74
2022/11/08 03:31:15;;;;;;;9.70;3.63;;;11.70;99.90;;;;;;5021152;28;20699;-74
2022/11/08 03:33:41;;;;;;;10.87;3.80;;;11.70;99.90;;;;;;5022255;28;20536;-74
2022/11/08 03:36:08;;;;;;;9.30;4.10;;;11.70;99.90;;;;;;4988322;28;20214;-73
2022/11/08 03:38:35;;;;;;;8.33;3.60;;;11.70;99.90;;;;;;5018034;28;20217;-73
2022/11/08 03:41:02;;;;;;;7.30;4.10;;;11.70;99.90;;;;;;5003650;28;20210;-74
2022/11/08 03:43:28;;;;;;;13.53;4.20;;;11.70;99.90;;;;;;5021071;28;20297;-74
2022/11/08 03:45:55;;;;;;;12.73;3.93;;;11.70;99.90;;;;;;5020909;28;20214;-73
2022/11/08 03:48:22;;;;;;;10.03;4.00;;;11.70;99.90;;;;;;5003597;28;20206;-75
2022/11/08 03:50:52;;;;;;;9.90;4.10;;;11.70;99.90;;;;;;5006326;28;20313;-73
2022/11/08 03:53:19;;;;;;;10.70;3.80;;;11.70;99.90;;;;;;5025313;28;20264;-73
2022/11/08 03:55:46;;;;;;;6.47;3.53;;;11.70;99.90;;;;;;5000375;28;20242;-74
2022/11/08 03:58:12;;;;;;;7.43;3.50;;;11.70;99.90;;;;;;5026739;28;20347;-74
2022/11/08 04:00:40;;;;;;;12.30;4.20;;;11.70;99.90;;;;;;5026841;28;20297;-74
2022/11/08 04:03:08;;;;;;;13.40;3.57;;;11.60;99.90;;;;;;5028447;28;20818;-74
2022/11/08 04:05:34;;;;;;;14.30;3.70;;;11.60;99.90;;;;;;5027194;28;20206;-74
2022/11/08 04:08:03;;;;;;;12.33;4.23;;;11.60;99.90;;;;;;5027548;28;20207;-74
2022/11/08 04:10:30;;;;;;;14.70;3.80;;;11.60;99.90;;;;;;5025937;28;20724;-74
2022/11/08 04:15:50;;;;;;;9.50;3.67;;;11.60;99.90;;;;;;5028123;28;20300;-75
2022/11/08 04:21:17;;;;;;;9.23;3.50;;;11.60;99.90;;;;;;5027036;28;20235;-74
2022/11/08 04:23:46;;;;;;;8.53;3.67;;;11.50;99.90;;;;;;5028734;28;20640;-74
2022/11/08 04:26:13;;;;;;;11.07;4.20;;;11.50;99.90;;;;;;5029699;28;20213;-74
2022/11/08 04:28:41;;;;;;;11.90;4.20;;;11.50;99.90;;;;;;5025450;28;20248;-73
2022/11/08 04:31:11;;;;;;;9.23;3.70;;;11.50;99.90;;;;;;5035734;28;20263;-74
2022/11/08 04:33:38;;;;;;;10.37;3.80;;;11.40;99.90;;;;;;5025048;28;20213;-74
2022/11/08 04:36:08;;;;;;;9.43;4.07;;;11.50;99.90;;;;;;5026674;28;20233;-74
2022/11/08 04:38:36;;;;;;;11.93;3.60;;;11.40;99.90;;;;;;5027947;28;20216;-74
2022/11/08 04:41:05;;;;;;;7.33;3.93;;;11.40;99.90;;;;;;5026033;28;20637;-74
2022/11/08 04:43:33;;;;;;;12.00;4.20;;;11.40;99.90;;;;;;5027871;28;20251;-74
2022/11/08 04:46:01;;;;;;;9.70;4.10;;;11.40;99.90;;;;;;5025987;28;20209;-74
2022/11/08 04:48:28;;;;;;;10.10;4.43;;;11.40;99.90;;;;;;5026230;28;20293;-73
2022/11/08 04:51:00;;;;;;;9.37;3.97;;;11.40;99.90;;;;;;5024805;28;20349;-73
2022/11/08 04:53:26;;;;;;;8.90;3.50;;;11.40;99.90;;;;;;5030135;28;20289;-75
2022/11/08 04:56:00;;;;;;;12.07;3.63;;;11.40;99.90;;;;;;5010775;28;20223;-73
2022/11/08 04:58:31;;;;;;;10.37;3.60;;;11.30;99.90;;;;;;5014793;28;20255;-73
2022/11/08 05:01:02;;;;;;;7.40;3.60;;;11.40;99.90;;;;;;5026652;28;20206;-74
2022/11/08 05:03:29;;;;;;;8.67;3.70;;;11.40;99.90;;;;;;5015532;28;20202;-74
2022/11/08 05:06:05;;;;;;;12.77;4.60;;;11.40;99.90;;;;;;5009776;28;20226;-74
2022/11/08 05:08:32;;;;;;;7.70;3.03;;;11.30;99.90;;;;;;5013602;28;20208;-75
2022/11/08 05:11:04;;;;;;;6.53;3.30;;;11.30;99.90;;;;;;5026379;28;20320;-73
2022/11/08 05:13:31;;;;;;;5.67;3.33;;;11.30;99.90;;;;;;5023834;28;20224;-73
2022/11/08 05:16:04;;;;;;;6.33;3.73;;;11.30;99.90;;;;;;5021729;28;20203;-74
2022/11/08 05:18:32;;;;;;;7.50;3.33;;;11.30;99.90;;;;;;5026280;28;20312;-73
2022/11/08 05:23:47;;;;;;;9.67;3.30;;;11.30;99.90;;;;;;5018849;28;20206;-73
2022/11/08 05:26:14;;;;;;;11.67;3.87;;;11.30;99.90;;;;;;5025760;28;20743;-75
2022/11/08 05:28:41;;;;;;;9.20;3.30;;;11.20;99.90;;;;;;5023362;28;20614;-76
2022/11/08 05:31:09;;;;;;;15.20;3.27;;;11.20;99.90;;;;;;5032546;28;20226;-74
2022/11/08 05:33:36;;;;;;;6.60;3.10;;;11.20;99.90;;;;;;5018001;28;20236;-73
2022/11/08 05:36:09;;;;;;;8.30;3.30;;;11.20;99.90;;;;;;5007922;28;20227;-74
2022/11/08 05:38:36;;;;;;;6.97;3.40;;;11.20;99.90;;;;;;5004199;28;20294;-74
2022/11/08 05:41:06;;;;;;;8.27;3.67;;;11.20;99.90;;;;;;5022241;28;20330;-74
2022/11/08 05:43:33;;;;;;;10.60;3.70;;;11.20;99.90;;;;;;5022175;28;20201;-74
2022/11/08 05:46:00;;;;;;;6.63;3.20;;;11.20;99.90;;;;;;5022011;28;20382;-74
2022/11/08 05:48:27;;;;;;;7.20;2.87;;;11.20;99.90;;;;;;5023169;28;20234;-74
2022/11/08 05:50:54;;;;;;;6.63;3.63;;;11.20;99.90;;;;;;5023411;28;20233;-75
2022/11/08 05:53:21;;;;;;;7.70;3.73;;;11.10;99.90;;;;;;5026053;28;20190;-75
2022/11/08 05:55:48;;;;;;;8.23;3.60;;;11.10;99.90;;;;;;5023862;28;20321;-74
2022/11/08 05:58:16;;;;;;;9.23;3.67;;;11.10;99.90;;;;;;5024396;28;20226;-74
2022/11/08 06:00:42;;;;;;;7.03;3.83;;;11.10;99.90;;;;;;5006197;28;20666;-75
2022/11/08 06:03:09;;;;;;;6.60;3.20;;;11.10;99.90;;;;;;5016955;28;20276;-75
2022/11/08 06:05:36;;;;;;;7.13;3.30;;;11.10;99.90;;;;;;5026043;28;20255;-74
2022/11/08 06:08:03;;;;;;;7.50;3.20;;;11.10;99.90;;;;;;5010554;28;20657;-73
2022/11/08 06:10:30;;;;;;;8.63;3.83;;;11.10;99.90;;;;;;5003696;28;20250;-76
2022/11/08 06:12:59;;;;;;;7.30;3.10;;;11.10;99.90;;;;;;5006337;28;20209;-75
2022/11/08 06:15:27;;;;;;;6.23;3.20;;;11.10;99.90;;;;;;5020417;28;20199;-75
2022/11/08 06:17:53;;;;;;;8.53;4.07;;;11.10;99.90;;;;;;5024734;28;20210;-75
2022/11/08 06:20:20;;;;;;;9.17;3.87;;;11.10;99.90;;;;;;5020353;28;20209;-75
2022/11/08 06:22:47;;;;;;;8.73;3.60;;;11.10;99.90;;;;;;5008341;28;20218;-75
2022/11/08 06:25:13;;;;;;;5.93;3.60;;;11.10;99.90;;;;;;5026915;28;20218;-74
2022/11/08 06:27:40;;;;;;;7.73;3.90;;;11.10;99.90;;;;;;5010261;28;20325;-74
2022/11/08 06:30:07;;;;;;;8.77;3.70;;;11.10;99.90;;;;;;5027944;28;20284;-77
2022/11/08 06:32:34;;;;;;;6.47;3.80;;;11.10;99.90;;;;;;5004785;28;20226;-74
2022/11/08 06:35:01;;;;;;;6.43;3.70;;;11.10;99.90;;;;;;5023857;28;20206;-75
2022/11/08 06:37:28;;;;;;;7.37;4.43;;;11.10;99.90;;;;;;5020060;28;20246;-75
2022/11/08 06:39:55;;;;;;;11.07;3.50;;;11.10;99.90;;;;;;5006629;28;20205;-74
2022/11/08 06:42:22;;;;;;;8.10;3.77;;;11.10;99.90;;;;;;5020137;28;20294;-75
2022/11/08 06:44:49;;;;;;;10.47;4.20;;;11.10;99.90;;;;;;5021834;28;20220;-75
2022/11/08 06:47:15;;;;;;;6.23;4.23;;;11.20;99.90;;;;;;5023917;28;20305;-75
2022/11/08 06:49:45;;;;;;;6.67;3.97;;;11.20;99.90;;;;;;5020965;28;20230;-81
2022/11/08 06:52:12;;;;;;;7.70;4.20;;;11.20;99.90;;;;;;5021798;28;20796;-73
2022/11/08 06:54:39;;;;;;;7.37;3.90;;;11.20;99.90;;;;;;5022432;28;20214;-74
2022/11/08 06:57:05;;;;;;;9.57;4.30;;;11.30;99.90;;;;;;5018506;28;20246;-74
2022/11/08 06:59:32;;;;;;;9.33;3.63;;;11.30;99.90;;;;;;5022003;28;20216;-74
2022/11/08 07:01:59;;;;;;;8.83;4.70;;;11.30;99.90;;;;;;5019381;28;20304;-75
2022/11/08 07:04:26;;;;;;;6.67;3.90;;;11.40;99.90;;;;;;5020358;28;20202;-73
2022/11/08 07:06:54;;;;;;;6.27;3.90;;;11.40;99.90;;;;;;5001846;28;20228;-71
2022/11/08 07:09:21;;;;;;;8.90;4.30;;;11.40;99.90;;;;;;5025345;28;20276;-73
2022/11/08 07:11:47;;;;;;;8.73;3.80;;;11.40;99.90;;;;;;5025034;28;20236;-74
2022/11/08 07:14:14;;;;;;;7.27;4.10;;;11.50;99.90;;;;;;5022777;28;20198;-74
2022/11/08 07:16:41;;;;;;;8.83;4.23;;;11.50;99.90;;;;;;5022556;28;20303;-74
2022/11/08 07:19:10;;;;;;;6.13;3.70;;;11.50;99.90;;;;;;5001722;28;20694;-75
2022/11/08 07:21:37;;;;;;;6.87;3.93;;;11.60;99.90;;;;;;5012081;28;20226;-74
2022/11/08 07:24:04;;;;;;;8.80;3.87;;;11.60;99.90;;;;;;5023986;28;20206;-74
2022/11/08 07:26:31;;;;;;;7.90;4.10;;;11.70;99.90;;;;;;5006598;28;20240;-75
2022/11/08 07:28:58;;;;;;;5.90;3.53;;;11.70;99.90;;;;;;5004702;28;20575;-72
2022/11/08 07:31:24;;;;;;;9.07;3.77;;;11.70;99.90;;;;;;5024143;28;20605;-75
2022/11/08 07:33:51;;;;;;;5.17;3.97;;;11.70;99.90;;;;;;5008754;28;20210;-74
2022/11/08 07:36:18;;;;;;;7.90;4.20;;;11.70;99.90;;;;;;5003294;28;20292;-74
2022/11/08 07:38:45;;;;;;;7.07;3.83;;;11.70;99.90;;;;;;5021258;28;20317;-74
2022/11/08 07:41:12;;;;;;;6.77;3.63;;;11.80;99.90;;;;;;5020005;28;20218;-74
2022/11/08 07:43:38;;;;;;;6.10;3.57;;;11.80;99.90;;;;;;5021392;28;20233;-74
2022/11/08 07:46:05;;;;;;;6.63;3.57;;;11.80;99.90;;;;;;5019280;28;20218;-74
2022/11/08 07:48:32;;;;;;;11.13;4.50;;;11.90;99.90;;;;;;5021937;28;20218;-73
2022/11/08 07:50:59;;;;;;;7.17;3.67;;;11.80;99.90;;;;;;5021373;28;20220;-74
2022/11/08 07:53:27;;;;;;;8.40;3.70;;;11.90;99.90;;;;;;5021368;28;20226;-73
2022/11/08 07:55:54;;;;;;;6.00;3.70;;;11.90;99.90;;;;;;5019848;28;20206;-74
2022/11/08 07:58:21;;;;;;;8.43;4.10;;;11.90;99.90;;;;;;5018634;28;20728;-74
2022/11/08 08:00:48;;;;;;;7.53;3.30;;;12.00;99.90;;;;;;5001573;28;20210;-74
2022/11/08 08:03:16;;;;;;;5.90;3.40;;;12.00;99.90;;;;;;5021272;28;20244;-74
2022/11/08 08:05:51;;;;;;;5.43;3.80;;;12.00;99.90;;;;;;5007599;28;20634;-75
2022/11/08 08:08:27;;;;;;;5.43;3.70;;;12.10;99.90;;;;;;5021137;28;20209;-73
2022/11/08 08:10:59;;;;;;;6.90;3.33;;;12.10;99.90;;;;;;5020098;28;20713;-74
2022/11/08 08:13:27;;;;;;;7.07;3.57;;;12.20;99.90;;;;;;5017982;28;20236;-75
2022/11/08 08:15:58;;;;;;;6.17;3.10;;;12.20;99.90;;;;;;5020006;28;20210;-74
2022/11/08 08:18:26;;;;;;;5.83;3.27;;;12.30;99.90;;;;;;5019646;28;20677;-73
2022/11/08 08:20:52;;;;;;;8.33;3.83;;;12.30;99.90;;;;;;5016116;28;20227;-75
2022/11/08 08:23:19;;;;;;;7.03;3.63;;;12.40;99.90;;;;;;5004436;28;20256;-74
2022/11/08 08:25:46;;;;;;;5.97;3.50;;;12.40;99.90;;;;;;5021449;28;20225;-74
2022/11/08 08:28:13;;;;;;;4.53;3.10;;;12.50;99.90;;;;;;5020576;28;20209;-74
2022/11/08 08:30:40;;;;;;;8.57;4.53;;;12.60;99.90;;;;;;5025013;28;20204;-75
2022/11/08 08:33:08;;;;;;;8.13;3.20;;;12.70;99.90;;;;;;5018393;28;20230;-74
2022/11/08 08:35:53;;;;;;;3.50;2.53;;;12.70;99.90;;;;;;5019904;28;20248;-74
2022/11/08 08:38:20;;;;;;;5.60;3.30;;;12.80;99.90;;;;;;5019937;28;20252;-74
2022/11/08 08:40:47;;;;;;;8.07;2.97;;;12.80;99.90;;;;;;5003305;28;20210;-73
2022/11/08 08:43:14;;;;;;;4.60;2.63;;;12.90;99.90;;;;;;5019126;28;20655;-75
2022/11/08 08:45:42;;;;;;;4.30;2.10;;;13.00;99.90;;;;;;5025230;28;20206;-74
2022/11/08 08:48:09;;;;;;;6.23;2.37;;;13.10;99.90;;;;;;5004989;28;20296;-74
2022/11/08 08:50:36;;;;;;;3.10;2.50;;;13.20;99.90;;;;;;5024388;28;20245;-74
2022/11/08 08:53:04;;;;;;;5.50;2.50;;;13.30;99.90;;;;;;5022597;28;20721;-75
2022/11/08 08:55:34;;;;;;;6.07;2.47;;;13.40;99.90;;;;;;5023192;28;20206;-78
2022/11/08 08:58:01;;;;;;;4.20;2.30;;;13.40;99.90;;;;;;5023809;28;20325;-73
2022/11/08 09:00:31;;;;;;;5.93;2.60;;;13.50;99.90;;;;;;5025410;28;20210;-74
2022/11/08 09:03:18;;;;;;;5.00;2.33;;;13.60;99.90;;;;;;5022309;28;20224;-74
2022/11/08 09:05:45;;;;;;;3.53;2.00;;;13.60;99.90;;;;;;5019672;28;20256;-74
2022/11/08 09:08:14;;;;;;;7.70;2.30;;;13.70;99.90;;;;;;5018918;28;20214;-74
2022/11/08 09:10:42;;;;;;;3.13;2.23;;;13.80;99.90;;;;;;5022837;28;20659;-74
2022/11/08 09:13:09;;;;;;;4.43;2.30;;;13.90;99.90;;;;;;5022585;28;20245;-74
2022/11/08 09:15:38;;;;;;;3.80;2.00;;;13.90;99.90;;;;;;5006407;28;20237;-74
2022/11/08 09:18:05;;;;;;;3.07;2.07;;;13.90;99.90;;;;;;5024241;28;20244;-75
2022/11/08 09:20:31;;;;;;;5.83;2.03;;;13.90;99.90;;;;;;5024279;28;20750;-74
2022/11/08 09:23:02;;;;;;;3.47;2.20;;;14.00;99.90;;;;;;5023632;28;20312;-74
2022/11/08 09:25:29;;;;;;;5.20;2.00;;;14.00;99.90;;;;;;5025471;28;20214;-73
2022/11/08 09:27:56;;;;;;;5.80;1.97;;;14.10;99.90;;;;;;5011529;28;20328;-74
2022/11/08 09:30:23;;;;;;;6.93;2.20;;;14.10;99.90;;;;;;5007602;28;20213;-74
2022/11/08 09:32:52;;;;;;;4.93;2.67;;;14.10;99.90;;;;;;5022061;28;20577;-73
2022/11/08 09:35:28;;;;;;;6.63;2.40;;;14.10;99.90;;;;;;5020866;28;20206;-73
2022/11/08 09:37:56;;;;;;;4.60;2.20;;;14.10;99.90;;;;;;5025306;28;20662;-75
2022/11/08 09:40:30;;;;;;;7.27;2.23;;;14.20;99.90;;;;;;5021557;28;20590;-73
2022/11/08 09:43:26;;;;;;;5.27;1.93;;;14.30;99.90;;;;;;5024716;28;20300;-74
2022/11/08 09:45:56;;;;;;;3.00;2.17;;;14.30;99.90;;;;;;5023211;28;20209;-73
2022/11/08 09:48:35;;;;;;;1.90;1.70;;;14.40;99.90;;;;;;5009396;28;20682;-72
2022/11/08 09:51:10;;;;;;;4.40;2.40;;;14.40;99.90;;;;;;5023891;28;20716;-74
2022/11/08 09:53:48;;;;;;;7.20;2.60;;;14.40;99.90;;;;;;5023060;28;20224;-72
2022/11/08 09:56:38;;;;;;;3.17;2.00;;;14.50;99.90;;;;;;5021779;28;20210;-73
2022/11/08 09:59:23;;;;;;;2.53;1.80;;;14.50;99.90;;;;;;5001240;28;20221;-72
2022/11/08 10:01:50;;;;;;;2.80;1.80;;;14.60;99.90;;;;;;5003506;28;20246;-74
2022/11/08 10:04:21;;;;;;;2.87;1.90;;;14.60;99.90;;;;;;5004038;28;20300;-74
2022/11/08 10:07:00;;;;;;;4.33;2.40;;;14.70;99.90;;;;;;5002134;28;20599;-73
2022/11/08 10:09:55;;;;;;;4.10;2.00;;;14.70;99.90;;;;;;5006540;28;20198;-73
2022/11/08 10:12:41;;;;;;;4.17;2.50;;;14.70;99.90;;;;;;5004839;28;20258;-73
2022/11/08 10:15:23;;;;;;;3.87;2.00;;;14.70;99.90;;;;;;5002828;28;20570;-73
2022/11/08 10:18:31;;;;;;;6.30;2.33;;;14.70;99.90;;;;;;5005103;28;20278;-75
2022/11/08 10:21:14;;;;;;;5.47;2.50;;;14.70;99.90;;;;;;5000462;28;20309;-74
2022/11/08 10:23:43;;;;;;;5.03;2.30;;;14.80;99.90;;;;;;5004716;28;20651;-74
2022/11/08 10:26:23;;;;;;;3.57;2.00;;;14.80;99.90;;;;;;5004909;28;20246;-73
2022/11/08 10:29:01;;;;;;;5.47;2.10;;;14.90;99.90;;;;;;5002871;28;20329;-73
2022/11/08 10:31:34;;;;;;;6.53;2.15;;;14.90;99.90;;;;;;5008783;28;20758;-74
2022/11/08 10:34:03;;;;;;;4.72;1.92;;;14.90;99.90;;;;;;4985808;28;20629;-73
2022/11/08 10:36:38;;;;;;;5.20;1.75;;;15.00;99.90;;;;;;5002926;28;20373;-73
2022/11/08 10:39:08;;;;;;;8.20;2.45;;;15.10;99.90;;;;;;5000459;28;20278;-74
2022/11/08 10:41:46;;;;;;;5.67;2.17;;;15.20;99.90;;;;;;5000899;28;20739;-74
2022/11/08 10:44:19;;;;;;;6.30;2.03;;;15.30;99.90;;;;;;5003352;28;20206;-73
2022/11/08 10:46:56;;;;;;;2.17;1.70;;;15.30;99.90;;;;;;4997791;28;20214;-75
2022/11/08 10:49:37;;;;;;;4.72;2.17;;;15.40;99.90;;;;;;5000666;28;20256;-75
2022/11/08 10:52:19;;;;;;;7.13;2.90;;;15.50;99.90;;;;;;5003823;28;20217;-74
2022/11/08 10:54:50;;;;;;;3.72;2.05;;;15.50;99.90;;;;;;5003520;28;20409;-74
2022/11/08 10:57:31;;;;;;;5.18;2.17;;;15.60;99.90;;;;;;5011833;28;20650;-75
2022/11/08 11:00:27;;;;;;;4.63;2.10;;;15.60;99.90;;;;;;5026350;28;20205;-74
2022/11/08 11:03:10;;;;;;;4.20;2.25;;;15.60;99.90;;;;;;5023738;28;20206;-75
2022/11/08 11:05:41;;;;;;;7.40;2.42;;;15.70;99.90;;;;;;5019892;28;20209;-73
2022/11/08 11:08:08;;;;;;;7.32;3.45;;;15.60;99.90;;;;;;5019941;28;20588;-73
2022/11/08 11:10:36;;;;;;;4.05;2.20;;;15.60;99.90;;;;;;5021931;28;20260;-73
2022/11/08 11:13:17;;;;;;;5.32;2.47;;;15.60;99.90;;;;;;5022600;28;20325;-72
2022/11/08 11:15:56;;;;;;;3.63;2.10;;;15.60;99.90;;;;;;5019223;28;20210;-73
2022/11/08 11:18:35;;;;;;;4.93;2.28;;;15.50;99.90;;;;;;5022443;28;20674;-73
2022/11/08 11:21:13;;;;;;;5.00;2.05;;;15.50;99.90;;;;;;5019450;28;20323;-73
2022/11/08 11:23:54;;;;;;;3.67;1.83;;;15.50;99.90;;;;;;5019346;28;20206;-73
2022/11/08 11:26:44;;;;;;;3.65;2.10;;;15.60;99.90;;;;;;5026366;28;20224;-73
2022/11/08 11:29:16;;;;;;;3.50;1.88;;;15.60;99.90;;;;;;5019992;28;20281;-72
2022/11/08 11:31:46;;;;;;;3.80;2.03;;;15.60;99.90;;;;;;5028151;28;20206;-73
2022/11/08 11:34:15;;;;;;;4.43;2.17;;;15.60;99.90;;;;;;5019008;28;20262;-73
2022/11/08 11:37:03;;;;;;;3.85;1.80;;;15.70;99.90;;;;;;5001219;28;20304;-72
2022/11/08 11:39:44;;;;;;;5.20;1.80;;;15.70;99.90;;;;;;5018415;28;20669;-72
2022/11/08 11:42:19;;;;;;;2.70;1.80;;;15.80;99.90;;;;;;5021636;28;20340;-73
2022/11/08 11:45:17;;;;;;;3.15;2.05;;;15.80;99.90;;;;;;5022762;28;20222;-73
2022/11/08 11:47:52;;;;;;;2.90;1.63;;;15.90;99.90;;;;;;5017354;28;20241;-74
2022/11/08 11:50:22;;;;;;;3.63;1.83;;;15.90;99.90;;;;;;5009082;28;21052;-73
2022/11/08 11:52:49;;;;;;;4.85;1.77;;;15.80;99.90;;;;;;5020294;28;20273;-72
2022/11/08 11:55:16;;;;;;;3.83;2.13;;;15.90;99.90;;;;;;5021988;28;20713;-73
2022/11/08 11:57:51;;;;;;;3.15;2.22;;;15.90;99.90;;;;;;5015500;28;20269;-72
2022/11/08 12:00:18;;;;;;;3.45;2.17;;;15.80;99.90;;;;;;5021664;28;20233;-75
2022/11/08 12:03:36;;;;;;;6.60;2.35;;;15.80;99.90;;;;;;5019566;28;20525;-73
2022/11/08 12:06:26;;;;;;;3.63;1.80;;;15.80;99.90;;;;;;5008607;28;20222;-74
2022/11/08 12:09:26;;;;;;;3.55;1.88;;;15.80;99.90;;;;;;5016815;28;20317;-72
2022/11/08 12:12:11;;;;;;;4.60;1.90;;;15.80;99.90;;;;;;5020759;28;20269;-74
2022/11/08 12:14:47;;;;;;;6.25;2.15;;;15.80;99.90;;;;;;5000757;28;20206;-74
2022/11/08 12:17:36;;;;;;;3.10;1.88;;;15.80;99.90;;;;;;5021777;28;20300;-73
2022/11/08 12:20:33;;;;;;;3.35;2.03;;;15.90;99.90;;;;;;5026911;28;20267;-74
2022/11/08 12:23:32;;;;;;;4.20;2.13;;;16.00;99.90;;;;;;5023805;28;20236;-73
2022/11/08 12:26:06;;;;;;;4.82;2.10;;;16.00;99.90;;;;;;5024882;28;20220;-74
2022/11/08 12:29:14;;;;;;;4.38;1.95;;;16.10;99.90;;;;;;5023620;28;20304;-74
2022/11/08 12:32:17;;;;;;;3.85;1.88;;;16.20;99.90;;;;;;5031884;28;20733;-73
2022/11/08 12:35:06;;;;;;;2.40;1.60;;;16.20;99.90;;;;;;5011174;28;20213;-74
2022/11/08 12:38:06;;;;;;;2.83;1.80;;;16.20;99.90;;;;;;5011367;28;20232;-75
2022/11/08 12:40:56;;;;;;;3.35;2.05;;;16.30;99.90;;;;;;5006419;28;20221;-73
2022/11/08 12:44:01;;;;;;;3.65;1.77;;;16.30;99.90;;;;;;5025484;28;20240;-73
2022/11/08 12:46:35;;;;;;;4.80;2.00;;;16.40;99.90;;;;;;5007027;28;20321;-73
2022/11/08 12:49:13;;;;;;;6.47;2.15;;;16.50;99.90;;;;;;5023564;28;20268;-73
2022/11/08 12:52:06;;;;;;;2.70;1.73;;;16.50;99.90;;;;;;5023084;28;20249;-73
2022/11/08 12:54:57;;;;;;;3.47;1.83;;;16.40;99.90;;;;;;5026255;28;20269;-73
2022/11/08 12:57:27;;;;;;;3.53;1.70;;;16.40;99.90;;;;;;5023644;28;20241;-74
2022/11/08 13:00:16;;;;;;;4.90;1.83;;;16.40;99.90;;;;;;5020326;28;20210;-75
2022/11/08 13:02:56;;;;;;;5.00;1.95;;;16.40;99.90;;;;;;5021249;28;20678;-73
2022/11/08 13:05:47;;;;;;;4.95;2.33;;;16.40;99.90;;;;;;5004516;28;20252;-73
2022/11/08 13:08:36;;;;;;;3.92;1.95;;;16.40;99.90;;;;;;5022369;28;20292;-75
2022/11/08 13:11:07;;;;;;;4.80;2.22;;;16.40;99.90;;;;;;5022245;28;20293;-72
2022/11/08 13:13:44;;;;;;;4.88;1.90;;;16.30;99.90;;;;;;5024478;28;20229;-72
2022/11/08 13:16:40;;;;;;;5.03;2.05;;;16.40;99.90;;;;;;5011850;28;20292;-73
2022/11/08 13:19:28;;;;;;;3.90;1.80;;;16.40;99.90;;;;;;5021434;28;20206;-74
2022/11/08 13:21:55;;;;;;;5.32;2.88;;;16.50;99.90;;;;;;5022257;28;20231;-72
2022/11/08 13:24:22;;;;;;;3.80;1.55;;;16.50;99.90;;;;;;5023721;28;20296;-72
2022/11/08 13:27:23;;;;;;;5.63;2.30;;;16.50;99.90;;;;;;5021682;28;20210;-73